Time;durP1;ratioP1;P1;durP2;ratioP2;P2;SDS_P1;SDS_P2;PMS_P1;PMS_P2;Temp;Humidity;BMP_temperature;BMP_pressure;BME280_temperature;BME280_humidity;BME280_pressure;Samples;Min_cycle;Max_cycle;Signal;HPM_P1;HPM_P2
2020/12/24 00:00:28;;;;;;;1.67;0.52;;;9.10;99.90;;;;;;5097496;28;20031;-81
2020/12/24 00:02:54;;;;;;;1.83;0.47;;;9.10;99.90;;;;;;5097429;28;20417;-81
2020/12/24 00:05:20;;;;;;;1.63;0.60;;;9.10;99.90;;;;;;5097332;28;20032;-81
2020/12/24 00:07:46;;;;;;;2.55;0.60;;;9.10;99.90;;;;;;5097146;28;20040;-81
2020/12/24 00:10:12;;;;;;;1.73;0.60;;;9.10;99.90;;;;;;5097234;28;20494;-81
2020/12/24 00:12:38;;;;;;;3.72;1.23;;;9.00;99.90;;;;;;5097590;28;20030;-82
2020/12/24 00:15:06;;;;;;;1.95;0.60;;;8.90;99.90;;;;;;5097022;28;20024;-82
2020/12/24 00:17:32;;;;;;;0.85;0.60;;;8.90;99.90;;;;;;5078851;28;20429;-81
2020/12/24 00:19:58;;;;;;;1.60;0.60;;;8.90;99.90;;;;;;5097278;28;20016;-82
2020/12/24 00:22:24;;;;;;;1.15;0.40;;;8.80;99.90;;;;;;5096930;28;20072;-82
2020/12/24 00:24:49;;;;;;;2.83;0.77;;;8.90;99.90;;;;;;5096922;28;20098;-82
2020/12/24 00:27:15;;;;;;;2.85;0.70;;;8.90;99.90;;;;;;5078750;28;20032;-82
2020/12/24 00:29:41;;;;;;;3.45;0.70;;;8.90;99.90;;;;;;5078643;28;20024;-81
2020/12/24 00:32:07;;;;;;;1.02;0.50;;;8.80;99.90;;;;;;5096771;28;20470;-82
2020/12/24 00:34:33;;;;;;;1.35;0.77;;;8.90;99.90;;;;;;5078368;28;20024;-82
2020/12/24 00:36:59;;;;;;;2.90;0.60;;;8.80;99.90;;;;;;5096915;28;20024;-82
2020/12/24 00:39:25;;;;;;;3.67;0.75;;;8.70;99.90;;;;;;5078409;28;20055;-83
2020/12/24 00:41:51;;;;;;;2.55;0.60;;;8.80;99.90;;;;;;5095754;28;20024;-82
2020/12/24 00:44:21;;;;;;;2.92;0.70;;;8.70;99.90;;;;;;5095979;28;20024;-82
2020/12/24 00:46:47;;;;;;;4.18;0.75;;;8.70;99.90;;;;;;5096458;28;20034;-82
2020/12/24 00:49:13;;;;;;;3.22;0.70;;;8.80;99.90;;;;;;5078250;28;20039;-83
2020/12/24 00:51:39;;;;;;;0.82;0.50;;;8.70;99.90;;;;;;5078305;28;20024;-83
2020/12/24 00:54:04;;;;;;;3.58;0.70;;;8.70;99.90;;;;;;5096232;28;20074;-83
2020/12/24 00:56:30;;;;;;;1.55;0.80;;;8.70;99.90;;;;;;5096324;28;20064;-83
2020/12/24 00:58:56;;;;;;;1.10;0.57;;;8.70;99.90;;;;;;5096246;28;20455;-83
2020/12/24 01:01:21;;;;;;;1.42;0.70;;;8.70;99.90;;;;;;5077995;28;20066;-83
2020/12/24 01:03:47;;;;;;;2.78;0.63;;;8.70;99.90;;;;;;5096397;28;20024;-83
2020/12/24 01:06:13;;;;;;;2.63;0.70;;;8.70;99.90;;;;;;5095904;28;20459;-82
2020/12/24 01:08:38;;;;;;;2.17;0.65;;;8.70;99.90;;;;;;5077735;28;20043;-83
2020/12/24 01:11:05;;;;;;;2.40;0.50;;;8.70;99.90;;;;;;5096024;28;20032;-82
2020/12/24 01:13:30;;;;;;;2.00;0.50;;;8.60;99.90;;;;;;5077760;28;20076;-82
2020/12/24 01:15:56;;;;;;;2.42;0.95;;;8.60;99.90;;;;;;5077884;28;20042;-82
2020/12/24 01:18:22;;;;;;;2.65;0.90;;;8.60;99.90;;;;;;5095999;28;20020;-82
2020/12/24 01:20:47;;;;;;;1.90;0.60;;;8.60;99.90;;;;;;5096029;28;20474;-82
2020/12/24 01:23:13;;;;;;;1.88;0.70;;;8.50;99.90;;;;;;5096299;28;20075;-82
2020/12/24 01:25:39;;;;;;;1.15;0.40;;;8.50;99.90;;;;;;5077941;28;20020;-82
2020/12/24 01:28:05;;;;;;;2.03;0.50;;;8.50;99.90;;;;;;5095931;28;20052;-82
2020/12/24 01:30:30;;;;;;;2.13;0.50;;;8.40;99.90;;;;;;5095658;28;20020;-82
2020/12/24 01:32:56;;;;;;;1.17;0.30;;;8.50;99.90;;;;;;5077548;28;20028;-82
2020/12/24 01:35:22;;;;;;;3.03;0.68;;;8.40;99.90;;;;;;5095462;28;20032;-82
2020/12/24 01:37:48;;;;;;;1.08;0.60;;;8.50;99.90;;;;;;5095505;28;20047;-82
2020/12/24 01:40:14;;;;;;;3.58;0.43;;;8.40;99.90;;;;;;5077308;28;20020;-80
2020/12/24 01:42:39;;;;;;;2.67;1.10;;;8.50;99.90;;;;;;5095385;28;20050;-82
2020/12/24 01:45:05;;;;;;;5.90;0.68;;;8.40;99.90;;;;;;5095594;28;20020;-82
2020/12/24 01:47:31;;;;;;;1.77;0.65;;;8.40;99.90;;;;;;5095299;28;20028;-82
2020/12/24 01:49:57;;;;;;;2.90;0.50;;;8.30;99.90;;;;;;5095258;28;20541;-82
2020/12/24 01:52:39;;;;;;;1.05;0.45;;;8.30;99.90;;;;;;5077138;28;20387;-82
2020/12/24 01:55:10;;;;;;;2.20;0.60;;;8.20;99.90;;;;;;5076576;28;20066;-82
2020/12/24 01:57:37;;;;;;;2.00;0.57;;;8.20;99.90;;;;;;5076887;28;20024;-83
2020/12/24 02:00:10;;;;;;;2.15;0.50;;;8.30;99.90;;;;;;5095060;28;20516;-82
2020/12/24 02:02:36;;;;;;;3.85;0.95;;;8.20;99.90;;;;;;5076857;28;20027;-82
2020/12/24 02:05:01;;;;;;;3.20;0.68;;;8.20;99.90;;;;;;5095277;28;20028;-82
2020/12/24 02:07:27;;;;;;;2.67;0.43;;;8.20;99.90;;;;;;5094806;28;20398;-82
2020/12/24 02:09:53;;;;;;;4.10;0.75;;;8.10;99.90;;;;;;5094824;28;20081;-82
2020/12/24 02:12:19;;;;;;;2.35;0.82;;;8.10;99.90;;;;;;5094865;28;20035;-82
2020/12/24 02:14:45;;;;;;;1.40;0.65;;;8.10;99.90;;;;;;5094944;28;20034;-83
2020/12/24 02:17:11;;;;;;;2.05;0.68;;;8.10;99.90;;;;;;5094725;28;20138;-82
2020/12/24 02:19:40;;;;;;;3.22;0.70;;;8.00;99.90;;;;;;5094706;28;20526;-82
2020/12/24 02:22:06;;;;;;;3.35;0.80;;;8.00;99.90;;;;;;5094905;28;20142;-82
2020/12/24 02:24:32;;;;;;;0.47;0.40;;;8.00;99.90;;;;;;5095104;28;20027;-82
2020/12/24 02:26:58;;;;;;;1.55;0.63;;;8.00;99.90;;;;;;5094571;28;20039;-82
2020/12/24 02:29:24;;;;;;;4.72;0.70;;;8.10;99.90;;;;;;5094485;28;20020;-82
2020/12/24 02:31:50;;;;;;;1.48;0.40;;;8.00;99.90;;;;;;5094501;28;20021;-82
2020/12/24 02:34:16;;;;;;;1.60;0.43;;;7.90;99.90;;;;;;5094322;28;20063;-82
2020/12/24 02:36:42;;;;;;;2.25;0.70;;;7.90;99.90;;;;;;5094358;28;20020;-82
2020/12/24 02:39:09;;;;;;;1.13;0.52;;;7.80;99.90;;;;;;5094315;28;20490;-82
2020/12/24 02:41:35;;;;;;;3.65;1.38;;;7.70;99.90;;;;;;5094573;28;20027;-82
2020/12/24 02:44:00;;;;;;;1.85;0.50;;;7.70;99.90;;;;;;5076106;28;20028;-82
2020/12/24 02:46:26;;;;;;;1.85;0.60;;;7.80;99.90;;;;;;5094481;28;20031;-82
2020/12/24 02:48:51;;;;;;;5.18;0.90;;;7.80;99.90;;;;;;5094146;28;20024;-82
2020/12/24 02:51:17;;;;;;;2.63;0.50;;;7.80;99.90;;;;;;5094666;28;20024;-82
2020/12/24 02:53:43;;;;;;;1.73;0.40;;;7.80;99.90;;;;;;5075834;28;20024;-82
2020/12/24 02:56:08;;;;;;;1.38;0.43;;;7.80;99.90;;;;;;5075962;28;20112;-82
2020/12/24 02:58:34;;;;;;;2.05;0.40;;;7.70;99.90;;;;;;5094039;28;20467;-81
2020/12/24 03:01:00;;;;;;;2.15;0.55;;;7.60;99.90;;;;;;5093960;28;20027;-81
2020/12/24 03:03:26;;;;;;;1.35;0.32;;;7.60;99.90;;;;;;5075914;28;20115;-82
2020/12/24 03:05:52;;;;;;;2.97;0.40;;;7.50;99.90;;;;;;5075173;28;20020;-81
2020/12/24 03:08:20;;;;;;;0.73;0.47;;;7.40;99.90;;;;;;5093929;28;20119;-81
2020/12/24 03:10:49;;;;;;;1.40;0.47;;;7.30;99.90;;;;;;5094513;28;20032;-81
2020/12/24 03:13:14;;;;;;;0.52;0.30;;;7.40;99.90;;;;;;5093805;28;20119;-81
2020/12/24 03:15:40;;;;;;;1.38;0.70;;;7.40;99.90;;;;;;5075634;28;20103;-81
2020/12/24 03:18:06;;;;;;;0.77;0.40;;;7.50;99.90;;;;;;5093814;28;20016;-81
2020/12/24 03:20:32;;;;;;;0.70;0.45;;;7.40;99.90;;;;;;5093756;28;20398;-81
2020/12/24 03:22:57;;;;;;;1.67;0.50;;;7.50;99.90;;;;;;5093834;28;20031;-81
2020/12/24 03:25:23;;;;;;;1.83;0.40;;;7.50;99.90;;;;;;5093755;28;20020;-81
2020/12/24 03:27:48;;;;;;;4.40;0.60;;;7.40;99.90;;;;;;5075566;28;20035;-81
2020/12/24 03:30:14;;;;;;;1.00;0.40;;;7.50;99.90;;;;;;5093628;28;20031;-82
2020/12/24 03:32:40;;;;;;;0.55;0.38;;;7.50;99.90;;;;;;5094052;28;20024;-81
2020/12/24 03:35:06;;;;;;;0.68;0.40;;;7.40;99.90;;;;;;5093570;28;20020;-81
2020/12/24 03:37:32;;;;;;;2.47;0.47;;;7.30;99.90;;;;;;5075754;28;20024;-81
2020/12/24 03:39:58;;;;;;;2.33;0.60;;;7.30;99.90;;;;;;5075428;28;20490;-81
2020/12/24 03:42:24;;;;;;;1.23;0.47;;;7.30;99.90;;;;;;5093858;28;20091;-82
2020/12/24 03:44:50;;;;;;;0.80;0.50;;;7.30;99.90;;;;;;5093809;28;20057;-81
2020/12/24 03:47:16;;;;;;;2.83;0.73;;;7.40;99.90;;;;;;5093460;28;20028;-81
2020/12/24 03:49:42;;;;;;;0.75;0.40;;;7.30;99.90;;;;;;5093530;28;20034;-81
2020/12/24 03:52:08;;;;;;;1.75;0.60;;;7.30;99.90;;;;;;5075398;28;20077;-81
2020/12/24 03:54:34;;;;;;;1.48;0.40;;;7.40;99.90;;;;;;5075276;28;20024;-81
2020/12/24 03:56:59;;;;;;;2.83;0.63;;;7.40;99.90;;;;;;5075521;28;20379;-82
2020/12/24 03:59:25;;;;;;;1.15;0.50;;;7.30;99.90;;;;;;5075401;28;20025;-81
2020/12/24 04:01:51;;;;;;;3.67;0.60;;;7.40;99.90;;;;;;5093308;28;20020;-82
2020/12/24 04:04:16;;;;;;;2.70;0.60;;;7.30;99.90;;;;;;5093652;28;20032;-82
2020/12/24 04:06:42;;;;;;;1.58;0.50;;;7.30;99.90;;;;;;5093316;28;20055;-81
2020/12/24 04:09:07;;;;;;;2.28;0.60;;;7.40;99.90;;;;;;5075236;28;20032;-82
2020/12/24 04:11:33;;;;;;;2.25;0.55;;;7.40;99.90;;;;;;5093300;28;20501;-82
2020/12/24 04:13:59;;;;;;;2.30;0.50;;;7.40;99.90;;;;;;5093345;28;20028;-81
2020/12/24 04:16:25;;;;;;;2.55;0.68;;;7.30;99.90;;;;;;5093858;28;20039;-82
2020/12/24 04:18:51;;;;;;;2.05;0.65;;;7.40;99.90;;;;;;5097299;28;20020;-81
2020/12/24 04:21:17;;;;;;;2.95;0.80;;;7.40;99.90;;;;;;5097053;28;20548;-81
2020/12/24 04:23:42;;;;;;;3.60;0.57;;;7.40;99.90;;;;;;5078802;28;20376;-81
2020/12/24 04:26:08;;;;;;;2.00;0.60;;;7.30;99.90;;;;;;5096976;28;20020;-82
2020/12/24 04:28:35;;;;;;;2.35;0.80;;;7.20;99.90;;;;;;5078787;28;20073;-82
2020/12/24 04:31:02;;;;;;;0.88;0.47;;;7.20;99.90;;;;;;5078698;28;20024;-81
2020/12/24 04:33:28;;;;;;;1.35;0.60;;;7.20;99.90;;;;;;5097032;28;20409;-81
2020/12/24 04:35:54;;;;;;;2.30;0.52;;;7.10;99.90;;;;;;5078642;28;20024;-81
2020/12/24 04:38:19;;;;;;;1.50;0.40;;;7.10;99.90;;;;;;5078677;28;20463;-81
2020/12/24 04:40:49;;;;;;;2.13;0.70;;;6.90;99.90;;;;;;5096691;28;20031;-81
2020/12/24 04:43:16;;;;;;;0.95;0.43;;;7.00;99.90;;;;;;5096656;28;20475;-81
2020/12/24 04:45:42;;;;;;;2.13;0.70;;;7.00;99.90;;;;;;5096844;28;20016;-81
2020/12/24 04:48:09;;;;;;;2.90;0.70;;;7.00;99.90;;;;;;5078528;28;20383;-81
2020/12/24 04:50:38;;;;;;;2.10;0.77;;;6.90;99.90;;;;;;5078263;28;20031;-81
2020/12/24 04:53:03;;;;;;;2.65;0.50;;;7.00;99.90;;;;;;5096413;28;20029;-81
2020/12/24 04:55:29;;;;;;;2.95;0.70;;;7.00;99.90;;;;;;5096295;28;20027;-81
2020/12/24 04:57:58;;;;;;;1.90;0.75;;;7.00;99.90;;;;;;5078343;28;20027;-81
2020/12/24 05:00:26;;;;;;;3.50;0.60;;;6.90;99.90;;;;;;5096261;28;20024;-81
2020/12/24 05:03:11;;;;;;;3.55;0.73;;;6.90;99.90;;;;;;5078049;28;20538;-81
2020/12/24 05:05:38;;;;;;;1.65;0.50;;;6.90;99.90;;;;;;5096757;28;20024;-81
2020/12/24 05:08:08;;;;;;;1.30;0.52;;;6.80;99.90;;;;;;5095957;28;20056;-81
2020/12/24 05:10:35;;;;;;;1.35;0.63;;;6.70;99.90;;;;;;5096009;28;20044;-81
2020/12/24 05:13:19;;;;;;;1.58;0.60;;;6.70;99.90;;;;;;5095970;28;20036;-81
2020/12/24 05:15:45;;;;;;;3.40;0.90;;;6.90;99.90;;;;;;5095950;28;20028;-81
2020/12/24 05:18:23;;;;;;;2.20;0.60;;;6.80;99.90;;;;;;5078057;28;20020;-81
2020/12/24 05:20:51;;;;;;;2.40;0.68;;;6.70;99.90;;;;;;5096179;28;20048;-81
2020/12/24 05:23:19;;;;;;;2.22;0.52;;;6.90;99.90;;;;;;5095797;28;20024;-81
2020/12/24 05:25:47;;;;;;;1.02;0.60;;;6.90;99.90;;;;;;5095760;28;20493;-81
2020/12/24 05:28:24;;;;;;;2.97;0.60;;;6.80;99.90;;;;;;5076866;28;20073;-81
2020/12/24 05:30:50;;;;;;;2.78;0.77;;;6.90;99.90;;;;;;5077548;28;20020;-81
2020/12/24 05:33:27;;;;;;;2.70;0.63;;;6.80;99.90;;;;;;5095854;28;20020;-82
2020/12/24 05:35:53;;;;;;;2.83;1.00;;;6.90;99.90;;;;;;5078213;28;20367;-82
2020/12/24 05:38:32;;;;;;;4.93;2.20;;;6.90;99.90;;;;;;5077321;28;20028;-81
2020/12/24 05:40:58;;;;;;;4.85;1.65;;;7.00;99.90;;;;;;5095711;28;20025;-82
2020/12/24 05:43:24;;;;;;;5.18;1.08;;;7.00;99.90;;;;;;5095372;28;20375;-82
2020/12/24 05:46:02;;;;;;;6.38;1.80;;;6.90;99.90;;;;;;5095359;28;20027;-81
2020/12/24 05:48:33;;;;;;;7.47;2.30;;;6.90;99.90;;;;;;5095366;28;20024;-81
2020/12/24 05:50:58;;;;;;;5.13;1.40;;;6.70;99.90;;;;;;5095382;28;20136;-81
2020/12/24 05:53:25;;;;;;;5.97;1.65;;;6.70;99.90;;;;;;5093631;28;20041;-82
2020/12/24 05:55:51;;;;;;;5.65;0.98;;;6.80;99.90;;;;;;5095176;28;20073;-82
2020/12/24 05:58:17;;;;;;;3.75;1.20;;;6.90;99.90;;;;;;5095093;28;20023;-81
2020/12/24 06:00:47;;;;;;;6.65;2.53;;;6.90;99.90;;;;;;5095081;28;20493;-81
2020/12/24 06:03:20;;;;;;;3.55;0.95;;;6.70;99.90;;;;;;5095016;28;20028;-82
2020/12/24 06:06:06;;;;;;;6.83;0.90;;;6.70;99.90;;;;;;5095257;28;20538;-81
2020/12/24 06:08:35;;;;;;;7.78;0.90;;;6.70;99.90;;;;;;5094736;28;20093;-81
2020/12/24 06:11:10;;;;;;;3.90;1.40;;;6.80;99.90;;;;;;5076652;28;20016;-81
2020/12/24 06:13:42;;;;;;;3.55;0.90;;;6.90;99.90;;;;;;5076620;28;20107;-81
2020/12/24 06:16:14;;;;;;;3.53;0.82;;;7.00;99.90;;;;;;5094808;28;20024;-82
2020/12/24 06:18:45;;;;;;;3.30;1.13;;;6.80;99.90;;;;;;5094743;28;20412;-81
2020/12/24 06:21:18;;;;;;;6.70;1.17;;;6.80;99.90;;;;;;5076478;28;20024;-81
2020/12/24 06:23:47;;;;;;;3.92;0.80;;;6.70;99.90;;;;;;5094933;28;20024;-82
2020/12/24 06:26:20;;;;;;;5.15;1.10;;;6.70;99.90;;;;;;5076382;28;20032;-81
2020/12/24 06:28:47;;;;;;;4.95;1.15;;;6.70;99.90;;;;;;5094577;28;20055;-81
2020/12/24 06:31:14;;;;;;;7.57;1.55;;;6.80;99.90;;;;;;5094535;28;20032;-81
2020/12/24 06:33:41;;;;;;;7.97;1.60;;;6.80;99.90;;;;;;5076155;28;20024;-82
2020/12/24 06:36:27;;;;;;;7.82;2.25;;;6.90;99.90;;;;;;5076223;28;20016;-81
2020/12/24 06:38:52;;;;;;;6.15;1.48;;;6.90;99.90;;;;;;5094184;28;20024;-82
2020/12/24 06:41:23;;;;;;;6.35;1.30;;;6.90;99.90;;;;;;5093276;28;20022;-82
2020/12/24 06:43:49;;;;;;;11.60;1.38;;;6.90;99.90;;;;;;5094326;28;20020;-82
2020/12/24 06:46:15;;;;;;;2.72;0.70;;;6.80;99.90;;;;;;5076104;28;20458;-82
2020/12/24 06:48:41;;;;;;;6.10;1.83;;;6.70;99.90;;;;;;5094227;28;20414;-82
2020/12/24 06:51:06;;;;;;;7.22;1.23;;;6.70;99.90;;;;;;5094187;28;20073;-82
2020/12/24 06:53:37;;;;;;;8.23;2.00;;;6.70;99.90;;;;;;5094115;28;20024;-82
2020/12/24 06:56:16;;;;;;;8.52;1.20;;;6.70;99.90;;;;;;5094491;28;20066;-82
2020/12/24 06:59:00;;;;;;;8.07;1.30;;;6.70;99.90;;;;;;5094141;28;20039;-82
2020/12/24 07:02:02;;;;;;;4.40;1.05;;;6.80;99.90;;;;;;5076822;28;20456;-82
2020/12/24 07:04:39;;;;;;;8.05;1.13;;;6.80;99.90;;;;;;5094286;28;20024;-82
2020/12/24 07:07:05;;;;;;;6.07;1.10;;;6.90;99.90;;;;;;5093665;28;20048;-82
2020/12/24 07:09:31;;;;;;;3.67;1.10;;;6.90;99.90;;;;;;5093872;28;20127;-82
2020/12/24 07:11:57;;;;;;;11.82;1.48;;;7.00;99.90;;;;;;5094382;28;20060;-82
2020/12/24 07:14:31;;;;;;;7.32;1.42;;;7.00;99.90;;;;;;5075585;28;20036;-82
2020/12/24 07:16:58;;;;;;;10.32;1.92;;;7.00;99.90;;;;;;5093590;28;20035;-82
2020/12/24 07:19:24;;;;;;;5.57;1.02;;;7.00;99.90;;;;;;5075703;28;20031;-82
2020/12/24 07:21:52;;;;;;;7.32;1.35;;;7.00;99.90;;;;;;5094273;28;20374;-82
2020/12/24 07:24:29;;;;;;;8.98;1.55;;;7.00;99.90;;;;;;5093801;28;20047;-82
2020/12/24 07:26:59;;;;;;;8.77;1.73;;;7.10;99.90;;;;;;5075902;28;20429;-81
2020/12/24 07:29:27;;;;;;;6.22;1.15;;;7.10;99.90;;;;;;5094396;28;20103;-81
2020/12/24 07:31:54;;;;;;;5.45;1.33;;;7.00;99.90;;;;;;5075968;28;20028;-80
2020/12/24 07:34:27;;;;;;;9.20;1.50;;;7.00;99.90;;;;;;5094424;28;20024;-82
2020/12/24 07:36:53;;;;;;;6.80;1.05;;;6.90;99.90;;;;;;5094063;28;20016;-82
2020/12/24 07:39:20;;;;;;;12.68;1.77;;;6.90;99.90;;;;;;5076193;28;20048;-81
2020/12/24 07:41:46;;;;;;;6.45;1.08;;;6.80;99.90;;;;;;5094124;28;20028;-82
2020/12/24 07:44:13;;;;;;;9.27;1.13;;;6.90;99.90;;;;;;5075824;28;20122;-81
2020/12/24 07:46:39;;;;;;;6.53;1.45;;;6.80;99.90;;;;;;5094041;28;20028;-81
2020/12/24 07:49:06;;;;;;;6.80;1.05;;;6.80;99.90;;;;;;5076299;28;20024;-82
2020/12/24 07:51:32;;;;;;;11.48;1.73;;;6.80;99.90;;;;;;5094614;28;20383;-82
2020/12/24 07:54:17;;;;;;;10.82;1.30;;;6.70;99.90;;;;;;5079585;28;20020;-80
2020/12/24 07:56:45;;;;;;;6.55;1.48;;;6.80;99.90;;;;;;5080108;28;20457;-81
2020/12/24 07:59:11;;;;;;;8.40;1.15;;;6.80;99.90;;;;;;5097904;28;20089;-82
2020/12/24 08:01:37;;;;;;;9.93;1.40;;;6.70;99.90;;;;;;5079723;28;20028;-81
2020/12/24 08:04:05;;;;;;;10.32;1.50;;;6.70;99.90;;;;;;5079809;28;20043;-81
2020/12/24 08:06:33;;;;;;;10.40;1.25;;;6.70;99.90;;;;;;5097556;28;20043;-81
2020/12/24 08:09:18;;;;;;;5.30;1.30;;;6.60;99.90;;;;;;5098142;28;20387;-81
2020/12/24 08:11:55;;;;;;;4.82;1.60;;;6.70;99.90;;;;;;5098119;28;20063;-81
2020/12/24 08:14:25;;;;;;;6.47;1.63;;;6.60;99.90;;;;;;5098075;28;20024;-81
2020/12/24 08:16:53;;;;;;;6.13;1.15;;;6.50;99.90;;;;;;5079602;28;20020;-82
2020/12/24 08:19:48;;;;;;;8.07;1.35;;;6.60;99.90;;;;;;5097595;28;20379;-81
2020/12/24 08:22:27;;;;;;;8.23;1.40;;;6.60;99.90;;;;;;5079543;28;20028;-81
2020/12/24 08:24:54;;;;;;;5.95;1.05;;;6.50;99.90;;;;;;5097576;28;20494;-81
2020/12/24 08:27:20;;;;;;;5.03;0.90;;;6.50;99.90;;;;;;5097596;28;20138;-81
2020/12/24 08:29:47;;;;;;;13.02;4.38;;;6.50;99.90;;;;;;5097554;28;20028;-80
2020/12/24 08:32:14;;;;;;;5.63;1.13;;;6.40;99.90;;;;;;5097381;28;20028;-81
2020/12/24 08:34:40;;;;;;;4.60;1.00;;;6.30;99.90;;;;;;5097932;28;20020;-81
2020/12/24 08:37:06;;;;;;;4.22;0.80;;;6.30;99.90;;;;;;5079272;28;20028;-80
2020/12/24 08:39:32;;;;;;;2.78;1.25;;;6.30;99.90;;;;;;5097260;28;20016;-81
2020/12/24 08:42:00;;;;;;;4.07;1.00;;;6.30;99.90;;;;;;5078794;28;20101;-81
2020/12/24 08:44:26;;;;;;;4.75;1.10;;;6.30;99.90;;;;;;5097125;28;20028;-81
2020/12/24 08:47:08;;;;;;;2.17;0.60;;;6.40;99.90;;;;;;5097248;28;20031;-81
2020/12/24 08:49:47;;;;;;;5.57;1.10;;;6.30;99.90;;;;;;5078940;28;20024;-81
2020/12/24 08:52:18;;;;;;;5.75;1.00;;;6.40;99.90;;;;;;5096680;28;20024;-81
2020/12/24 08:55:00;;;;;;;4.35;0.85;;;6.50;99.90;;;;;;5096807;28;20524;-80
2020/12/24 08:57:26;;;;;;;1.88;0.73;;;6.50;99.90;;;;;;5096714;28;20031;-81
2020/12/24 08:59:59;;;;;;;4.22;0.70;;;6.50;99.90;;;;;;5096706;28;20016;-81
2020/12/24 09:02:33;;;;;;;4.68;0.85;;;6.40;99.90;;;;;;5096676;28;20024;-81
2020/12/24 09:05:00;;;;;;;1.83;0.90;;;6.40;99.90;;;;;;5077318;28;20119;-81
2020/12/24 09:07:37;;;;;;;3.22;0.70;;;6.50;99.90;;;;;;5096049;28;20048;-80
2020/12/24 09:10:26;;;;;;;3.63;0.90;;;6.50;99.90;;;;;;5078155;28;20039;-81
2020/12/24 09:13:02;;;;;;;4.57;0.63;;;6.60;99.90;;;;;;5096312;28;20020;-82
2020/12/24 09:15:29;;;;;;;4.45;0.85;;;6.50;99.90;;;;;;5096776;28;20489;-82
2020/12/24 09:17:56;;;;;;;3.92;1.02;;;6.60;99.90;;;;;;5096058;28;20020;-82
2020/12/24 09:20:33;;;;;;;2.67;0.68;;;6.50;99.90;;;;;;5096433;28;20024;-81
2020/12/24 09:23:01;;;;;;;5.05;0.90;;;6.50;99.90;;;;;;5096788;28;20101;-80
2020/12/24 09:25:46;;;;;;;4.70;0.82;;;6.60;99.90;;;;;;5096726;28;20024;-81
2020/12/24 09:28:21;;;;;;;3.25;1.00;;;6.60;99.90;;;;;;5096385;28;20016;-81
2020/12/24 09:30:47;;;;;;;5.85;1.27;;;6.70;99.90;;;;;;5096847;28;20024;-81
2020/12/24 09:33:13;;;;;;;4.05;1.27;;;6.80;99.90;;;;;;5096357;28;20036;-82
2020/12/24 09:35:39;;;;;;;4.45;1.50;;;6.80;99.90;;;;;;5096356;28;20028;-82
2020/12/24 09:38:04;;;;;;;4.20;0.90;;;6.80;99.90;;;;;;5095767;28;20053;-81
2020/12/24 09:40:30;;;;;;;3.33;0.80;;;6.80;99.90;;;;;;5077970;28;20115;-80
2020/12/24 09:42:56;;;;;;;6.93;1.02;;;6.80;99.90;;;;;;5095879;28;20433;-81
2020/12/24 09:45:23;;;;;;;3.05;0.90;;;6.80;99.90;;;;;;5077872;28;20032;-81
2020/12/24 09:47:50;;;;;;;3.83;0.95;;;6.90;99.90;;;;;;5077285;28;20055;-81
2020/12/24 09:50:16;;;;;;;2.90;0.80;;;6.90;99.90;;;;;;5095767;28;20028;-81
2020/12/24 09:52:41;;;;;;;2.20;0.90;;;6.90;99.90;;;;;;5095602;28;20111;-82
2020/12/24 09:55:07;;;;;;;3.08;1.10;;;6.90;99.90;;;;;;5095399;28;20059;-81
2020/12/24 09:57:35;;;;;;;3.53;1.30;;;6.90;99.90;;;;;;5095364;28;20032;-81
2020/12/24 10:00:01;;;;;;;3.70;0.90;;;7.00;99.90;;;;;;5095856;28;20039;-81
2020/12/24 10:02:27;;;;;;;3.58;1.40;;;7.10;99.90;;;;;;5095832;28;20498;-88
2020/12/24 10:04:54;;;;;;;4.00;0.98;;;7.10;99.90;;;;;;5060701;28;20036;-87
2020/12/24 10:07:23;;;;;;;3.28;0.98;;;7.10;99.90;;;;;;5077536;28;20051;-87
2020/12/24 10:09:50;;;;;;;6.75;1.00;;;7.20;99.90;;;;;;5076881;28;20059;-88
2020/12/24 10:12:21;;;;;;;6.50;1.27;;;7.30;99.90;;;;;;5095104;28;20459;-83
2020/12/24 10:14:47;;;;;;;4.32;0.90;;;7.40;99.90;;;;;;5076385;28;20085;-83
2020/12/24 10:17:14;;;;;;;6.68;0.80;;;7.40;99.90;;;;;;5076366;28;20028;-82
2020/12/24 10:19:43;;;;;;;2.55;0.73;;;7.50;99.90;;;;;;5094583;28;20081;-83
2020/12/24 10:22:09;;;;;;;4.10;0.75;;;7.40;99.90;;;;;;5095827;28;20039;-84
2020/12/24 10:24:35;;;;;;;2.20;0.70;;;7.40;99.90;;;;;;5078528;28;20111;-86
2020/12/24 10:27:01;;;;;;;2.20;0.50;;;7.40;99.90;;;;;;5076605;28;20058;-83
2020/12/24 10:29:27;;;;;;;3.15;0.73;;;7.30;99.90;;;;;;5076547;28;20024;-81
2020/12/24 10:31:52;;;;;;;1.58;0.90;;;7.30;99.90;;;;;;5076337;28;20024;-81
2020/12/24 10:34:18;;;;;;;2.78;0.85;;;7.40;99.90;;;;;;5076417;28;20050;-81
2020/12/24 10:36:44;;;;;;;2.78;1.20;;;7.30;99.90;;;;;;5076315;28;20027;-81
2020/12/24 10:39:10;;;;;;;4.72;1.48;;;7.30;99.90;;;;;;5094712;28;20096;-82
2020/12/24 10:41:40;;;;;;;7.03;1.48;;;7.30;99.90;;;;;;5094910;28;20031;-82
2020/12/24 10:44:06;;;;;;;4.03;1.10;;;7.30;99.90;;;;;;5076308;28;20035;-82
2020/12/24 10:46:32;;;;;;;2.83;0.70;;;7.30;99.90;;;;;;5094266;28;20047;-82
2020/12/24 10:48:58;;;;;;;1.60;0.60;;;7.30;99.90;;;;;;5076657;28;20383;-83
2020/12/24 10:51:24;;;;;;;3.45;0.73;;;7.30;99.90;;;;;;5076119;28;20024;-82
2020/12/24 10:53:49;;;;;;;3.28;0.73;;;7.40;99.90;;;;;;5095134;28;20047;-82
2020/12/24 10:56:16;;;;;;;3.50;0.90;;;7.50;99.90;;;;;;5075993;28;20108;-82
2020/12/24 10:58:43;;;;;;;3.42;0.90;;;7.40;99.90;;;;;;5075872;28;20031;-81
2020/12/24 11:01:10;;;;;;;3.15;0.85;;;7.50;99.90;;;;;;5094079;28;20478;-82
2020/12/24 11:03:37;;;;;;;2.42;0.85;;;7.40;99.90;;;;;;5094591;28;20016;-83
2020/12/24 11:06:04;;;;;;;3.10;0.60;;;7.30;99.90;;;;;;5094249;28;20459;-82
2020/12/24 11:08:29;;;;;;;4.65;0.65;;;7.30;99.90;;;;;;5094751;28;20097;-82
2020/12/24 11:10:55;;;;;;;3.90;0.70;;;7.20;99.90;;;;;;5093970;28;20475;-82
2020/12/24 11:13:21;;;;;;;3.80;0.80;;;7.20;99.90;;;;;;5075747;28;20020;-81
2020/12/24 11:15:46;;;;;;;2.90;0.80;;;7.10;99.90;;;;;;5093978;28;20457;-81
2020/12/24 11:18:13;;;;;;;1.88;1.02;;;7.10;99.90;;;;;;5076187;28;20367;-81
2020/12/24 11:20:39;;;;;;;1.98;0.60;;;7.20;99.90;;;;;;5075803;28;20107;-81
2020/12/24 11:23:04;;;;;;;2.88;0.70;;;7.40;99.90;;;;;;5075707;28;20082;-82
2020/12/24 11:25:30;;;;;;;0.80;0.52;;;7.50;99.90;;;;;;5093735;28;20035;-81
2020/12/24 11:27:56;;;;;;;2.67;0.65;;;8.00;99.90;;;;;;5075497;28;20028;-81
2020/12/24 11:30:21;;;;;;;3.92;0.63;;;8.10;99.90;;;;;;5093677;28;20032;-81
2020/12/24 11:32:47;;;;;;;1.13;0.45;;;8.40;99.90;;;;;;5076132;28;20024;-81
2020/12/24 11:35:13;;;;;;;2.30;0.50;;;8.40;99.90;;;;;;5075442;28;20024;-82
2020/12/24 11:37:39;;;;;;;3.83;1.08;;;8.40;99.90;;;;;;5093894;28;20020;-81
2020/12/24 11:40:04;;;;;;;1.45;0.45;;;8.30;99.90;;;;;;5075584;28;20031;-82
2020/12/24 11:42:33;;;;;;;2.45;0.95;;;8.60;99.90;;;;;;5076006;28;20093;-82
2020/12/24 11:44:59;;;;;;;2.53;0.40;;;8.90;99.90;;;;;;5093966;28;20027;-83
2020/12/24 11:47:25;;;;;;;2.60;0.50;;;8.90;99.90;;;;;;5094075;28;20104;-80
2020/12/24 11:49:51;;;;;;;1.95;0.90;;;8.70;99.90;;;;;;5093604;28;20024;-81
2020/12/24 11:52:16;;;;;;;2.05;0.50;;;9.00;99.90;;;;;;5075363;28;20028;-82
2020/12/24 11:54:42;;;;;;;1.77;0.52;;;9.60;99.90;;;;;;5094024;28;20055;-82
2020/12/24 11:57:08;;;;;;;1.98;0.40;;;10.00;99.90;;;;;;5093876;28;20016;-83
2020/12/24 11:59:34;;;;;;;3.95;0.60;;;10.00;99.90;;;;;;5075318;28;20066;-83
2020/12/24 12:02:00;;;;;;;1.67;0.60;;;10.00;99.90;;;;;;5075449;28;20072;-82
2020/12/24 12:04:27;;;;;;;1.48;0.52;;;9.50;99.90;;;;;;5075226;28;20111;-83
2020/12/24 12:06:53;;;;;;;0.28;0.22;;;9.50;99.90;;;;;;5093417;28;20020;-81
2020/12/24 12:09:19;;;;;;;1.55;0.60;;;9.50;99.90;;;;;;5075072;28;20047;-81
2020/12/24 12:11:46;;;;;;;2.03;0.50;;;9.20;99.90;;;;;;5093316;28;20495;-82
2020/12/24 12:14:12;;;;;;;2.38;0.60;;;9.00;99.90;;;;;;5075107;28;20027;-82
2020/12/24 12:16:38;;;;;;;1.00;0.45;;;9.20;99.90;;;;;;5093195;28;20016;-82
2020/12/24 12:19:04;;;;;;;0.45;0.17;;;9.30;99.90;;;;;;5093942;28;20028;-81
2020/12/24 12:21:30;;;;;;;1.25;0.60;;;9.10;99.90;;;;;;5093348;28;20016;-81
2020/12/24 12:23:57;;;;;;;1.48;0.55;;;9.00;99.90;;;;;;5093416;28;20024;-81
2020/12/24 12:26:23;;;;;;;3.65;0.50;;;8.90;99.90;;;;;;5074995;28;20024;-84
2020/12/24 12:28:48;;;;;;;1.77;0.45;;;8.80;99.90;;;;;;5093354;28;20081;-81
2020/12/24 12:31:16;;;;;;;4.75;0.70;;;8.70;99.90;;;;;;5092984;28;20020;-80
2020/12/24 12:33:42;;;;;;;1.92;0.60;;;8.70;99.90;;;;;;5074774;28;20032;-81
2020/12/24 12:36:07;;;;;;;1.45;0.50;;;8.70;99.90;;;;;;5093258;28;20062;-81
2020/12/24 12:38:33;;;;;;;1.98;0.50;;;8.40;99.90;;;;;;5095270;28;20051;-81
2020/12/24 12:40:59;;;;;;;4.80;0.85;;;8.20;99.90;;;;;;5096652;28;20099;-81
2020/12/24 12:43:24;;;;;;;2.22;0.50;;;8.10;99.90;;;;;;5096593;28;20028;-81
2020/12/24 12:45:50;;;;;;;1.35;0.50;;;8.00;99.90;;;;;;5078435;28;20153;-81
2020/12/24 12:48:16;;;;;;;3.28;0.60;;;7.90;99.90;;;;;;5078399;28;20024;-81
2020/12/24 12:50:42;;;;;;;1.15;0.70;;;7.70;99.90;;;;;;5078354;28;20479;-81
2020/12/24 12:53:08;;;;;;;1.70;0.70;;;7.80;99.90;;;;;;5078624;28;20352;-81
2020/12/24 12:55:34;;;;;;;1.40;0.50;;;7.80;99.90;;;;;;5078195;28;20081;-80
2020/12/24 12:57:59;;;;;;;2.58;0.70;;;7.80;99.90;;;;;;5096274;28;20099;-81
2020/12/24 13:00:25;;;;;;;1.58;0.98;;;7.70;99.90;;;;;;5096246;28;20024;-82